sensor_id;sensor_type;location;lat;lon;timestamp;pressure;altitude;pressure_sealevel;temperature;humidity
71774;BME280;59607;52.130;5.430;2023-04-30T00:00:54;102506.81;;;7.81;100.00
71774;BME280;59607;52.130;5.430;2023-04-30T00:03:23;102501.91;;;7.76;100.00
71774;BME280;59607;52.130;5.430;2023-04-30T00:05:50;102502.31;;;7.70;100.00
71774;BME280;59607;52.130;5.430;2023-04-30T00:08:20;102501.56;;;7.68;100.00
71774;BME280;59607;52.130;5.430;2023-04-30T00:10:46;102494.78;;;7.65;100.00
71774;BME280;59607;52.130;5.430;2023-04-30T00:13:13;102493.84;;;7.67;100.00
71774;BME280;59607;52.130;5.430;2023-04-30T00:15:39;102492.25;;;7.64;100.00
71774;BME280;59607;52.130;5.430;2023-04-30T00:18:12;102497.88;;;7.58;100.00
71774;BME280;59607;52.130;5.430;2023-04-30T00:20:38;102499.69;;;7.57;100.00
71774;BME280;59607;52.130;5.430;2023-04-30T00:23:14;102502.16;;;7.46;100.00
71774;BME280;59607;52.130;5.430;2023-04-30T00:25:40;102497.03;;;7.44;100.00
71774;BME280;59607;52.130;5.430;2023-04-30T00:28:09;102496.28;;;7.42;100.00
71774;BME280;59607;52.130;5.430;2023-04-30T00:30:39;102496.69;;;7.36;100.00
71774;BME280;59607;52.130;5.430;2023-04-30T00:33:05;102495.84;;;7.35;100.00
71774;BME280;59607;52.130;5.430;2023-04-30T00:35:42;102497.41;;;7.25;100.00
71774;BME280;59607;52.130;5.430;2023-04-30T00:38:10;102498.72;;;7.18;100.00
71774;BME280;59607;52.130;5.430;2023-04-30T00:40:40;102496.66;;;7.23;100.00
71774;BME280;59607;52.130;5.430;2023-04-30T00:43:10;102489.25;;;7.30;100.00
71774;BME280;59607;52.130;5.430;2023-04-30T00:45:37;102501.16;;;7.34;100.00
71774;BME280;59607;52.130;5.430;2023-04-30T00:48:09;102501.72;;;7.39;100.00
71774;BME280;59607;52.130;5.430;2023-04-30T00:50:40;102501.47;;;7.29;100.00
71774;BME280;59607;52.130;5.430;2023-04-30T00:53:12;102508.44;;;7.28;100.00
71774;BME280;59607;52.130;5.430;2023-04-30T00:55:41;102504.06;;;7.29;100.00
71774;BME280;59607;52.130;5.430;2023-04-30T00:58:14;102514.91;;;7.23;100.00
71774;BME280;59607;52.130;5.430;2023-04-30T01:00:41;102520.44;;;7.18;100.00
71774;BME280;59607;52.130;5.430;2023-04-30T01:03:17;102513.63;;;7.15;100.00
71774;BME280;59607;52.130;5.430;2023-04-30T01:05:44;102523.25;;;7.15;100.00
71774;BME280;59607;52.130;5.430;2023-04-30T01:08:12;102518.75;;;7.17;100.00
71774;BME280;59607;52.130;5.430;2023-04-30T01:10:50;102519.13;;;7.11;100.00
71774;BME280;59607;52.130;5.430;2023-04-30T01:13:28;102512.56;;;7.05;100.00
71774;BME280;59607;52.130;5.430;2023-04-30T01:16:07;102518.59;;;7.06;100.00
71774;BME280;59607;52.130;5.430;2023-04-30T01:21:32;102520.09;;;7.10;100.00
71774;BME280;59607;52.130;5.430;2023-04-30T01:29:51;102518.47;;;6.94;100.00
71774;BME280;59607;52.130;5.430;2023-04-30T01:32:23;102526.81;;;6.99;100.00
71774;BME280;59607;52.130;5.430;2023-04-30T01:34:55;102528.59;;;6.99;100.00
71774;BME280;59607;52.130;5.430;2023-04-30T01:37:43;102520.97;;;6.96;100.00
71774;BME280;59607;52.130;5.430;2023-04-30T01:40:28;102518.91;;;6.86;100.00
71774;BME280;59607;52.130;5.430;2023-04-30T01:52:17;102524.41;;;6.82;100.00
71774;BME280;59607;52.130;5.430;2023-04-30T01:55:19;102527.50;;;6.88;100.00
71774;BME280;59607;52.130;5.430;2023-04-30T01:57:58;102524.69;;;6.91;100.00
71774;BME280;59607;52.130;5.430;2023-04-30T02:00:30;102532.22;;;6.96;100.00
71774;BME280;59607;52.130;5.430;2023-04-30T02:02:57;102533.91;;;6.97;100.00
71774;BME280;59607;52.130;5.430;2023-04-30T02:05:26;102542.66;;;6.96;100.00
71774;BME280;59607;52.130;5.430;2023-04-30T02:07:53;102527.94;;;6.95;100.00
71774;BME280;59607;52.130;5.430;2023-04-30T02:10:21;102530.00;;;6.90;100.00
71774;BME280;59607;52.130;5.430;2023-04-30T02:12:52;102537.06;;;6.88;100.00
71774;BME280;59607;52.130;5.430;2023-04-30T02:15:23;102532.91;;;6.85;100.00
71774;BME280;59607;52.130;5.430;2023-04-30T02:17:50;102533.09;;;6.82;100.00
71774;BME280;59607;52.130;5.430;2023-04-30T02:20:16;102537.66;;;6.78;100.00
71774;BME280;59607;52.130;5.430;2023-04-30T02:22:45;102525.38;;;6.81;100.00
71774;BME280;59607;52.130;5.430;2023-04-30T02:25:13;102531.34;;;6.83;100.00
71774;BME280;59607;52.130;5.430;2023-04-30T02:27:45;102539.34;;;6.79;100.00
71774;BME280;59607;52.130;5.430;2023-04-30T02:30:12;102523.97;;;6.75;100.00
71774;BME280;59607;52.130;5.430;2023-04-30T02:32:47;102529.38;;;6.72;100.00
71774;BME280;59607;52.130;5.430;2023-04-30T02:35:14;102520.16;;;6.66;100.00
71774;BME280;59607;52.130;5.430;2023-04-30T02:37:46;102525.56;;;6.63;100.00
71774;BME280;59607;52.130;5.430;2023-04-30T02:40:20;102526.50;;;6.62;100.00
71774;BME280;59607;52.130;5.430;2023-04-30T02:42:49;102530.88;;;6.61;100.00
71774;BME280;59607;52.130;5.430;2023-04-30T02:45:24;102530.22;;;6.58;100.00
71774;BME280;59607;52.130;5.430;2023-04-30T02:47:56;102519.03;;;6.56;100.00
71774;BME280;59607;52.130;5.430;2023-04-30T02:50:22;102523.34;;;6.57;100.00
71774;BME280;59607;52.130;5.430;2023-04-30T02:52:49;102521.47;;;6.59;100.00
71774;BME280;59607;52.130;5.430;2023-04-30T02:55:20;102517.28;;;6.56;100.00
71774;BME280;59607;52.130;5.430;2023-04-30T02:57:47;102521.75;;;6.54;100.00
71774;BME280;59607;52.130;5.430;2023-04-30T03:00:14;102516.91;;;6.48;100.00
71774;BME280;59607;52.130;5.430;2023-04-30T03:02:46;102517.84;;;6.47;100.00
71774;BME280;59607;52.130;5.430;2023-04-30T03:05:13;102514.22;;;6.49;100.00
71774;BME280;59607;52.130;5.430;2023-04-30T03:08:01;102517.56;;;6.51;100.00
71774;BME280;59607;52.130;5.430;2023-04-30T03:10:30;102514.31;;;6.48;100.00
71774;BME280;59607;52.130;5.430;2023-04-30T03:12:56;102515.16;;;6.48;100.00
71774;BME280;59607;52.130;5.430;2023-04-30T03:15:32;102517.84;;;6.47;100.00
71774;BME280;59607;52.130;5.430;2023-04-30T03:17:58;102521.19;;;6.49;100.00
71774;BME280;59607;52.130;5.430;2023-04-30T03:20:31;102522.41;;;6.43;100.00
71774;BME280;59607;52.130;5.430;2023-04-30T03:22:59;102523.53;;;6.39;100.00
71774;BME280;59607;52.130;5.430;2023-04-30T03:25:32;102513.47;;;6.33;100.00
71774;BME280;59607;52.130;5.430;2023-04-30T03:28:01;102514.41;;;6.32;100.00
71774;BME280;59607;52.130;5.430;2023-04-30T03:30:31;102512.56;;;6.34;100.00
71774;BME280;59607;52.130;5.430;2023-04-30T03:33:17;102510.13;;;6.31;100.00
71774;BME280;59607;52.130;5.430;2023-04-30T03:35:43;102511.41;;;6.23;100.00
71774;BME280;59607;52.130;5.430;2023-04-30T03:38:10;102514.22;;;6.20;100.00
71774;BME280;59607;52.130;5.430;2023-04-30T03:40:37;102512.34;;;6.22;100.00
71774;BME280;59607;52.130;5.430;2023-04-30T03:43:04;102511.50;;;6.22;100.00
71774;BME280;59607;52.130;5.430;2023-04-30T03:45:34;102510.13;;;6.16;100.00
71774;BME280;59607;52.130;5.430;2023-04-30T03:48:04;102508.63;;;6.12;100.00
71774;BME280;59607;52.130;5.430;2023-04-30T03:50:34;102498.63;;;6.04;100.00
71774;BME280;59607;52.130;5.430;2023-04-30T03:53:00;102496.91;;;6.04;100.00
71774;BME280;59607;52.130;5.430;2023-04-30T03:55:34;102503.69;;;6.07;100.00
71774;BME280;59607;52.130;5.430;2023-04-30T03:58:01;102505.72;;;6.16;100.00
71774;BME280;59607;52.130;5.430;2023-04-30T04:00:33;102504.16;;;6.14;100.00
71774;BME280;59607;52.130;5.430;2023-04-30T04:03:11;102501.47;;;6.15;100.00
71774;BME280;59607;52.130;5.430;2023-04-30T04:05:41;102504.06;;;6.15;100.00
71774;BME280;59607;52.130;5.430;2023-04-30T04:08:07;102510.13;;;6.16;100.00
71774;BME280;59607;52.130;5.430;2023-04-30T04:10:40;102507.34;;;6.19;100.00
71774;BME280;59607;52.130;5.430;2023-04-30T04:13:10;102509.00;;;6.20;100.00
71774;BME280;59607;52.130;5.430;2023-04-30T04:15:39;102513.94;;;6.25;100.00
71774;BME280;59607;52.130;5.430;2023-04-30T04:18:16;102502.69;;;6.24;100.00
71774;BME280;59607;52.130;5.430;2023-04-30T04:20:56;102500.19;;;6.23;100.00
71774;BME280;59607;52.130;5.430;2023-04-30T04:23:23;102500.63;;;6.29;100.00
71774;BME280;59607;52.130;5.430;2023-04-30T04:25:53;102502.59;;;6.26;100.00
71774;BME280;59607;52.130;5.430;2023-04-30T04:28:20;102502.31;;;6.31;100.00
71774;BME280;59607;52.130;5.430;2023-04-30T04:30:55;102500.28;;;6.36;100.00
71774;BME280;59607;52.130;5.430;2023-04-30T04:33:21;102497.72;;;6.34;100.00
71774;BME280;59607;52.130;5.430;2023-04-30T04:35:48;102504.53;;;6.37;100.00
71774;BME280;59607;52.130;5.430;2023-04-30T04:38:15;102509.19;;;6.46;100.00
71774;BME280;59607;52.130;5.430;2023-04-30T04:40:49;102506.09;;;6.54;100.00
71774;BME280;59607;52.130;5.430;2023-04-30T04:43:24;102510.41;;;6.55;100.00
71774;BME280;59607;52.130;5.430;2023-04-30T04:45:50;102505.97;;;6.85;100.00
71774;BME280;59607;52.130;5.430;2023-04-30T04:48:25;102503.25;;;8.21;100.00
71774;BME280;59607;52.130;5.430;2023-04-30T04:50:51;102507.16;;;8.79;100.00
71774;BME280;59607;52.130;5.430;2023-04-30T04:53:18;102512.69;;;9.12;99.17
71774;BME280;59607;52.130;5.430;2023-04-30T04:56:05;102512.25;;;9.18;96.17
71774;BME280;59607;52.130;5.430;2023-04-30T04:58:35;102507.28;;;9.02;94.97
71774;BME280;59607;52.130;5.430;2023-04-30T05:01:01;102514.03;;;8.93;93.79
71774;BME280;59607;52.130;5.430;2023-04-30T05:03:36;102502.94;;;8.89;92.80
71774;BME280;59607;52.130;5.430;2023-04-30T05:06:07;102493.94;;;9.54;94.11
71774;BME280;59607;52.130;5.430;2023-04-30T05:08:37;102493.00;;;11.58;84.68
71774;BME280;59607;52.130;5.430;2023-04-30T05:11:03;102486.44;;;13.27;74.07
71774;BME280;59607;52.130;5.430;2023-04-30T05:13:29;102483.69;;;14.35;68.20
71774;BME280;59607;52.130;5.430;2023-04-30T05:16:02;102468.88;;;15.25;64.20
71774;BME280;59607;52.130;5.430;2023-04-30T05:18:28;102476.59;;;15.98;61.40
71774;BME280;59607;52.130;5.430;2023-04-30T05:20:58;102478.00;;;16.70;57.52
71774;BME280;59607;52.130;5.430;2023-04-30T05:23:25;102468.13;;;17.14;56.10
71774;BME280;59607;52.130;5.430;2023-04-30T05:25:53;102484.66;;;17.41;53.67
71774;BME280;59607;52.130;5.430;2023-04-30T05:28:28;102486.47;;;17.49;53.68
71774;BME280;59607;52.130;5.430;2023-04-30T05:30:54;102493.81;;;17.30;53.80
71774;BME280;59607;52.130;5.430;2023-04-30T05:33:24;102490.75;;;17.58;53.07
71774;BME280;59607;52.130;5.430;2023-04-30T05:35:54;102496.09;;;17.50;53.04
71774;BME280;59607;52.130;5.430;2023-04-30T05:38:20;102487.56;;;17.80;52.68
71774;BME280;59607;52.130;5.430;2023-04-30T05:40:51;102489.75;;;18.80;50.67
71774;BME280;59607;52.130;5.430;2023-04-30T05:43:17;102496.69;;;18.57;50.10
71774;BME280;59607;52.130;5.430;2023-04-30T05:45:43;102500.28;;;18.73;49.74
71774;BME280;59607;52.130;5.430;2023-04-30T05:48:10;102500.41;;;18.80;49.68
71774;BME280;59607;52.130;5.430;2023-04-30T05:50:42;102512.69;;;18.17;49.58
71774;BME280;59607;52.130;5.430;2023-04-30T05:53:08;102511.44;;;17.88;50.67
71774;BME280;59607;52.130;5.430;2023-04-30T05:55:38;102511.28;;;18.30;49.05
71774;BME280;59607;52.130;5.430;2023-04-30T05:58:10;102509.78;;;18.35;50.09
71774;BME280;59607;52.130;5.430;2023-04-30T06:00:36;102502.16;;;19.11;48.93
71774;BME280;59607;52.130;5.430;2023-04-30T06:03:09;102516.84;;;18.52;49.05
71774;BME280;59607;52.130;5.430;2023-04-30T06:05:36;102519.56;;;17.86;51.10
71774;BME280;59607;52.130;5.430;2023-04-30T06:08:05;102526.44;;;17.31;51.18
71774;BME280;59607;52.130;5.430;2023-04-30T06:10:34;102519.66;;;17.36;51.02
71774;BME280;59607;52.130;5.430;2023-04-30T06:13:02;102527.59;;;16.35;52.72
71774;BME280;59607;52.130;5.430;2023-04-30T06:15:51;102525.38;;;14.31;58.49
71774;BME280;59607;52.130;5.430;2023-04-30T06:18:21;102538.88;;;13.01;62.62
71774;BME280;59607;52.130;5.430;2023-04-30T06:20:50;102542.38;;;12.60;64.99
71774;BME280;59607;52.130;5.430;2023-04-30T06:23:19;102541.72;;;11.84;68.71
71774;BME280;59607;52.130;5.430;2023-04-30T06:25:46;102549.44;;;11.43;71.10
71774;BME280;59607;52.130;5.430;2023-04-30T06:28:12;102553.75;;;11.11;74.41
71774;BME280;59607;52.130;5.430;2023-04-30T06:30:45;102548.59;;;11.09;76.23
71774;BME280;59607;52.130;5.430;2023-04-30T06:33:11;102552.22;;;10.97;78.07
71774;BME280;59607;52.130;5.430;2023-04-30T06:35:41;102550.91;;;10.91;79.81
71774;BME280;59607;52.130;5.430;2023-04-30T06:38:08;102550.59;;;10.73;80.28
71774;BME280;59607;52.130;5.430;2023-04-30T06:40:34;102552.50;;;10.59;81.69
71774;BME280;59607;52.130;5.430;2023-04-30T06:43:01;102551.78;;;10.69;82.92
71774;BME280;59607;52.130;5.430;2023-04-30T06:45:34;102554.03;;;10.85;83.43
71774;BME280;59607;52.130;5.430;2023-04-30T06:48:00;102545.91;;;10.88;83.56
71774;BME280;59607;52.130;5.430;2023-04-30T06:50:37;102540.91;;;10.85;82.30
71774;BME280;59607;52.130;5.430;2023-04-30T06:53:13;102542.09;;;10.81;82.75
71774;BME280;59607;52.130;5.430;2023-04-30T06:55:44;102546.97;;;10.85;82.54
71774;BME280;59607;52.130;5.430;2023-04-30T06:58:12;102537.88;;;11.13;82.88
71774;BME280;59607;52.130;5.430;2023-04-30T07:00:42;102549.16;;;11.25;80.85
71774;BME280;59607;52.130;5.430;2023-04-30T07:03:08;102547.69;;;10.99;81.43
71774;BME280;59607;52.130;5.430;2023-04-30T07:05:38;102543.13;;;11.13;80.90
71774;BME280;59607;52.130;5.430;2023-04-30T07:08:05;102545.38;;;11.17;81.07
71774;BME280;59607;52.130;5.430;2023-04-30T07:10:32;102553.38;;;11.16;81.23
71774;BME280;59607;52.130;5.430;2023-04-30T07:12:58;102550.13;;;11.23;81.04
71774;BME280;59607;52.130;5.430;2023-04-30T07:15:45;102550.13;;;11.23;80.98
71774;BME280;59607;52.130;5.430;2023-04-30T07:18:11;102547.91;;;11.40;80.37
71774;BME280;59607;52.130;5.430;2023-04-30T07:20:38;102547.03;;;11.51;79.19
71774;BME280;59607;52.130;5.430;2023-04-30T07:23:04;102550.13;;;11.56;79.72
71774;BME280;59607;52.130;5.430;2023-04-30T07:25:31;102553.56;;;11.57;78.06
71774;BME280;59607;52.130;5.430;2023-04-30T07:28:05;102561.69;;;11.54;79.90
71774;BME280;59607;52.130;5.430;2023-04-30T07:30:38;102553.56;;;11.78;78.21
71774;BME280;59607;52.130;5.430;2023-04-30T07:33:05;102553.13;;;11.73;77.35
71774;BME280;59607;52.130;5.430;2023-04-30T07:35:36;102555.44;;;11.88;77.33
71774;BME280;59607;52.130;5.430;2023-04-30T07:38:02;102553.19;;;12.04;76.29
71774;BME280;59607;52.130;5.430;2023-04-30T07:40:30;102550.19;;;12.09;76.31
71774;BME280;59607;52.130;5.430;2023-04-30T07:43:02;102552.22;;;12.27;75.61
71774;BME280;59607;52.130;5.430;2023-04-30T07:45:32;102546.91;;;12.17;74.72
71774;BME280;59607;52.130;5.430;2023-04-30T07:47:59;102550.44;;;12.06;75.34
71774;BME280;59607;52.130;5.430;2023-04-30T07:50:31;102551.63;;;12.23;74.67
71774;BME280;59607;52.130;5.430;2023-04-30T07:53:11;102552.44;;;12.14;75.34
71774;BME280;59607;52.130;5.430;2023-04-30T07:55:38;102544.50;;;12.35;75.15
71774;BME280;59607;52.130;5.430;2023-04-30T07:58:04;102549.09;;;12.43;73.85
71774;BME280;59607;52.130;5.430;2023-04-30T08:00:36;102543.97;;;12.41;73.09
71774;BME280;59607;52.130;5.430;2023-04-30T08:03:03;102544.53;;;12.45;73.65
71774;BME280;59607;52.130;5.430;2023-04-30T08:05:39;102545.13;;;12.49;73.95
71774;BME280;59607;52.130;5.430;2023-04-30T08:08:06;102544.34;;;12.68;74.01
71774;BME280;59607;52.130;5.430;2023-04-30T08:10:37;102534.63;;;12.68;73.04
71774;BME280;59607;52.130;5.430;2023-04-30T08:13:11;102536.47;;;12.78;73.72
71774;BME280;59607;52.130;5.430;2023-04-30T08:15:40;102544.66;;;12.85;72.88
71774;BME280;59607;52.130;5.430;2023-04-30T08:18:11;102543.59;;;13.07;71.78
71774;BME280;59607;52.130;5.430;2023-04-30T08:20:38;102542.34;;;13.11;70.91
71774;BME280;59607;52.130;5.430;2023-04-30T08:23:10;102540.84;;;13.18;71.25
71774;BME280;59607;52.130;5.430;2023-04-30T08:25:36;102538.31;;;13.37;71.39
71774;BME280;59607;52.130;5.430;2023-04-30T08:28:08;102540.13;;;13.46;69.47
71774;BME280;59607;52.130;5.430;2023-04-30T08:30:37;102537.78;;;13.43;69.64
71774;BME280;59607;52.130;5.430;2023-04-30T08:33:04;102539.31;;;13.55;69.76
71774;BME280;59607;52.130;5.430;2023-04-30T08:35:36;102535.69;;;13.47;68.98
71774;BME280;59607;52.130;5.430;2023-04-30T08:38:02;102537.19;;;13.69;68.11
71774;BME280;59607;52.130;5.430;2023-04-30T08:40:33;102540.09;;;13.86;66.46
71774;BME280;59607;52.130;5.430;2023-04-30T08:43:20;102534.03;;;13.65;66.11
71774;BME280;59607;52.130;5.430;2023-04-30T08:45:49;102540.53;;;13.81;66.11
71774;BME280;59607;52.130;5.430;2023-04-30T08:48:23;102539.75;;;14.09;65.33
71774;BME280;59607;52.130;5.430;2023-04-30T08:50:50;102535.50;;;13.98;64.84
71774;BME280;59607;52.130;5.430;2023-04-30T08:53:19;102528.25;;;14.38;64.61
71774;BME280;59607;52.130;5.430;2023-04-30T08:55:47;102524.44;;;14.50;63.85
71774;BME280;59607;52.130;5.430;2023-04-30T08:58:14;102529.56;;;14.52;61.75
71774;BME280;59607;52.130;5.430;2023-04-30T09:00:41;102529.19;;;14.47;62.62
71774;BME280;59607;52.130;5.430;2023-04-30T09:03:24;102532.75;;;14.55;61.61
71774;BME280;59607;52.130;5.430;2023-04-30T09:05:58;102530.16;;;14.46;61.83
71774;BME280;59607;52.130;5.430;2023-04-30T09:08:40;102521.28;;;14.65;62.03
71774;BME280;59607;52.130;5.430;2023-04-30T09:11:27;102521.28;;;14.65;60.10
71774;BME280;59607;52.130;5.430;2023-04-30T09:13:59;102528.41;;;14.36;60.61
71774;BME280;59607;52.130;5.430;2023-04-30T09:16:43;102523.84;;;14.56;61.00
71774;BME280;59607;52.130;5.430;2023-04-30T09:19:28;102523.06;;;14.46;60.67
71774;BME280;59607;52.130;5.430;2023-04-30T09:22:26;102532.16;;;14.62;61.32
71774;BME280;59607;52.130;5.430;2023-04-30T09:24:52;102518.34;;;14.68;60.56
71774;BME280;59607;52.130;5.430;2023-04-30T09:27:21;102516.63;;;15.05;60.60
71774;BME280;59607;52.130;5.430;2023-04-30T09:29:50;102518.34;;;14.96;59.29
71774;BME280;59607;52.130;5.430;2023-04-30T09:32:16;102506.41;;;15.10;59.33
71774;BME280;59607;52.130;5.430;2023-04-30T09:34:45;102499.25;;;15.21;59.01
71774;BME280;59607;52.130;5.430;2023-04-30T09:37:14;102502.81;;;15.29;58.96
71774;BME280;59607;52.130;5.430;2023-04-30T09:39:53;102506.41;;;15.28;60.08
71774;BME280;59607;52.130;5.430;2023-04-30T09:42:21;102501.41;;;15.44;58.42
71774;BME280;59607;52.130;5.430;2023-04-30T09:44:55;102502.81;;;15.56;57.90
71774;BME280;59607;52.130;5.430;2023-04-30T09:47:22;102507.63;;;15.61;57.45
71774;BME280;59607;52.130;5.430;2023-04-30T09:49:59;102504.22;;;15.42;57.64
71774;BME280;59607;52.130;5.430;2023-04-30T09:52:25;102494.91;;;15.38;57.97
71774;BME280;59607;52.130;5.430;2023-04-30T09:54:55;102497.63;;;15.73;57.15
71774;BME280;59607;52.130;5.430;2023-04-30T09:57:26;102495.13;;;15.98;56.98
71774;BME280;59607;52.130;5.430;2023-04-30T09:59:57;102496.22;;;15.87;56.62
71774;BME280;59607;52.130;5.430;2023-04-30T10:02:29;102485.81;;;15.59;56.47
71774;BME280;59607;52.130;5.430;2023-04-30T10:04:56;102483.34;;;15.65;57.04
71774;BME280;59607;52.130;5.430;2023-04-30T10:07:40;102494.03;;;15.82;56.92
71774;BME280;59607;52.130;5.430;2023-04-30T10:10:11;102485.50;;;15.97;56.67
71774;BME280;59607;52.130;5.430;2023-04-30T10:12:42;102480.69;;;16.19;55.89
71774;BME280;59607;52.130;5.430;2023-04-30T10:15:16;102479.19;;;16.16;57.36
71774;BME280;59607;52.130;5.430;2023-04-30T10:18:05;102475.75;;;16.32;56.62
71774;BME280;59607;52.130;5.430;2023-04-30T10:20:36;102474.16;;;16.48;55.30
71774;BME280;59607;52.130;5.430;2023-04-30T10:23:04;102470.88;;;16.71;54.30
71774;BME280;59607;52.130;5.430;2023-04-30T10:25:34;102465.50;;;16.37;54.77
71774;BME280;59607;52.130;5.430;2023-04-30T10:28:03;102478.75;;;16.37;54.22
71774;BME280;59607;52.130;5.430;2023-04-30T10:30:30;102475.88;;;16.22;54.69
71774;BME280;59607;52.130;5.430;2023-04-30T10:33:11;102466.31;;;16.30;54.43
71774;BME280;59607;52.130;5.430;2023-04-30T10:36:11;102459.25;;;16.55;53.93
71774;BME280;59607;52.130;5.430;2023-04-30T10:38:41;102458.28;;;16.48;54.29
71774;BME280;59607;52.130;5.430;2023-04-30T10:41:18;102458.72;;;16.35;54.68
71774;BME280;59607;52.130;5.430;2023-04-30T10:43:48;102456.78;;;16.62;53.96
71774;BME280;59607;52.130;5.430;2023-04-30T10:46:23;102453.81;;;16.98;53.82
71774;BME280;59607;52.130;5.430;2023-04-30T10:48:53;102452.69;;;17.01;53.13
71774;BME280;59607;52.130;5.430;2023-04-30T10:51:21;102449.38;;;16.99;53.20
71774;BME280;59607;52.130;5.430;2023-04-30T10:53:50;102454.16;;;16.87;53.28
71774;BME280;59607;52.130;5.430;2023-04-30T10:56:35;102439.75;;;16.89;54.31
71774;BME280;59607;52.130;5.430;2023-04-30T10:59:02;102446.03;;;16.97;53.32
71774;BME280;59607;52.130;5.430;2023-04-30T11:01:28;102432.28;;;17.01;53.20
71774;BME280;59607;52.130;5.430;2023-04-30T11:04:07;102435.13;;;17.33;52.27
71774;BME280;59607;52.130;5.430;2023-04-30T11:07:06;102425.81;;;17.37;52.81
71774;BME280;59607;52.130;5.430;2023-04-30T11:09:55;102428.47;;;17.29;52.72
71774;BME280;59607;52.130;5.430;2023-04-30T11:12:26;102423.16;;;17.46;52.54
71774;BME280;59607;52.130;5.430;2023-04-30T11:15:14;102422.19;;;17.30;52.31
71774;BME280;59607;52.130;5.430;2023-04-30T11:17:57;102419.00;;;17.51;52.93
71774;BME280;59607;52.130;5.430;2023-04-30T11:20:49;102409.84;;;17.62;51.99
71774;BME280;59607;52.130;5.430;2023-04-30T11:23:25;102419.06;;;17.26;51.28
71774;BME280;59607;52.130;5.430;2023-04-30T11:26:07;102411.25;;;17.25;51.49
71774;BME280;59607;52.130;5.430;2023-04-30T11:28:37;102413.75;;;17.26;51.99
71774;BME280;59607;52.130;5.430;2023-04-30T11:31:06;102404.13;;;17.34;51.19
71774;BME280;59607;52.130;5.430;2023-04-30T11:33:36;102397.78;;;17.51;51.21
71774;BME280;59607;52.130;5.430;2023-04-30T11:36:06;102394.63;;;17.48;50.75
71774;BME280;59607;52.130;5.430;2023-04-30T11:38:39;102385.31;;;17.60;51.24
71774;BME280;59607;52.130;5.430;2023-04-30T11:41:06;102382.81;;;17.59;51.73
71774;BME280;59607;52.130;5.430;2023-04-30T11:43:41;102380.59;;;17.79;50.81
71774;BME280;59607;52.130;5.430;2023-04-30T11:46:09;102383.84;;;17.89;50.89
71774;BME280;59607;52.130;5.430;2023-04-30T11:48:50;102375.56;;;17.84;50.12
71774;BME280;59607;52.130;5.430;2023-04-30T11:51:21;102369.41;;;17.92;49.60
71774;BME280;59607;52.130;5.430;2023-04-30T11:53:52;102376.00;;;17.96;50.35
71774;BME280;59607;52.130;5.430;2023-04-30T11:56:20;102360.72;;;18.30;49.90
71774;BME280;59607;52.130;5.430;2023-04-30T11:58:52;102362.78;;;18.43;49.71
71774;BME280;59607;52.130;5.430;2023-04-30T12:01:19;102366.22;;;18.29;49.66
71774;BME280;59607;52.130;5.430;2023-04-30T12:04:21;102363.38;;;18.07;49.36
71774;BME280;59607;52.130;5.430;2023-04-30T12:06:50;102353.25;;;18.34;49.37
71774;BME280;59607;52.130;5.430;2023-04-30T12:09:19;102353.81;;;18.68;49.42
71774;BME280;59607;52.130;5.430;2023-04-30T12:11:46;102352.75;;;18.92;49.05
71774;BME280;59607;52.130;5.430;2023-04-30T12:14:23;102352.63;;;18.85;48.23
71774;BME280;59607;52.130;5.430;2023-04-30T12:16:51;102352.53;;;18.64;47.64
71774;BME280;59607;52.130;5.430;2023-04-30T12:19:23;102350.91;;;18.54;48.43
71774;BME280;59607;52.130;5.430;2023-04-30T12:21:53;102350.22;;;18.75;47.29
71774;BME280;59607;52.130;5.430;2023-04-30T12:24:25;102343.38;;;18.96;46.88
71774;BME280;59607;52.130;5.430;2023-04-30T12:26:52;102338.34;;;18.86;47.03
71774;BME280;59607;52.130;5.430;2023-04-30T12:29:21;102343.06;;;19.15;46.99
71774;BME280;59607;52.130;5.430;2023-04-30T12:31:48;102334.44;;;19.43;46.24
71774;BME280;59607;52.130;5.430;2023-04-30T12:34:16;102332.31;;;18.93;46.71
71774;BME280;59607;52.130;5.430;2023-04-30T12:36:51;102336.72;;;18.47;47.72
71774;BME280;59607;52.130;5.430;2023-04-30T12:39:17;102339.53;;;18.22;48.05
71774;BME280;59607;52.130;5.430;2023-04-30T12:41:46;102334.25;;;18.60;48.42
71774;BME280;59607;52.130;5.430;2023-04-30T12:44:25;102325.38;;;19.22;46.71
71774;BME280;59607;52.130;5.430;2023-04-30T12:46:57;102326.47;;;19.13;47.33
71774;BME280;59607;52.130;5.430;2023-04-30T12:49:28;102321.94;;;18.98;45.30
71774;BME280;59607;52.130;5.430;2023-04-30T12:52:05;102331.25;;;18.64;47.17
71774;BME280;59607;52.130;5.430;2023-04-30T12:54:41;102324.84;;;18.73;46.56
71774;BME280;59607;52.130;5.430;2023-04-30T12:57:17;102314.16;;;18.81;46.69
71774;BME280;59607;52.130;5.430;2023-04-30T12:59:57;102313.88;;;18.91;46.36
71774;BME280;59607;52.130;5.430;2023-04-30T13:02:26;102309.59;;;19.20;45.80
71774;BME280;59607;52.130;5.430;2023-04-30T13:04:54;102298.56;;;19.39;45.72
71774;BME280;59607;52.130;5.430;2023-04-30T13:07:22;102299.50;;;19.68;45.43
71774;BME280;59607;52.130;5.430;2023-04-30T13:09:50;102295.84;;;19.69;44.43
71774;BME280;59607;52.130;5.430;2023-04-30T13:12:16;102292.72;;;19.65;43.73
71774;BME280;59607;52.130;5.430;2023-04-30T13:14:47;102300.22;;;19.98;43.44
71774;BME280;59607;52.130;5.430;2023-04-30T13:17:13;102296.88;;;19.90;42.82
71774;BME280;59607;52.130;5.430;2023-04-30T13:19:40;102293.13;;;19.84;42.25
71774;BME280;59607;52.130;5.430;2023-04-30T13:22:17;102288.22;;;20.03;42.97
71774;BME280;59607;52.130;5.430;2023-04-30T13:24:43;102286.34;;;20.03;41.06
71774;BME280;59607;52.130;5.430;2023-04-30T13:27:11;102281.66;;;20.05;40.86
71774;BME280;59607;52.130;5.430;2023-04-30T13:29:40;102275.00;;;20.16;41.42